sensor_id;sensor_type;location;lat;lon;timestamp;temperature;humidity
70460;DHT22;57920;54.796;9.430;2022-08-21T00:00:38;21.40;63.20
70460;DHT22;57920;54.796;9.430;2022-08-21T00:03:06;21.40;63.20
70460;DHT22;57920;54.796;9.430;2022-08-21T00:05:36;21.40;63.20
70460;DHT22;57920;54.796;9.430;2022-08-21T00:08:03;21.40;63.20
70460;DHT22;57920;54.796;9.430;2022-08-21T00:10:29;21.40;63.20
70460;DHT22;57920;54.796;9.430;2022-08-21T00:12:55;21.40;63.20
70460;DHT22;57920;54.796;9.430;2022-08-21T00:15:25;21.40;63.20
70460;DHT22;57920;54.796;9.430;2022-08-21T00:17:54;21.40;63.20
70460;DHT22;57920;54.796;9.430;2022-08-21T00:20:21;21.40;63.20
70460;DHT22;57920;54.796;9.430;2022-08-21T00:22:47;21.40;63.20
70460;DHT22;57920;54.796;9.430;2022-08-21T00:25:13;21.40;63.20
70460;DHT22;57920;54.796;9.430;2022-08-21T00:27:40;21.40;63.20
70460;DHT22;57920;54.796;9.430;2022-08-21T00:30:08;21.30;63.20
70460;DHT22;57920;54.796;9.430;2022-08-21T00:32:36;21.30;63.20
70460;DHT22;57920;54.796;9.430;2022-08-21T00:35:03;21.30;63.20
70460;DHT22;57920;54.796;9.430;2022-08-21T00:37:29;21.30;63.20
70460;DHT22;57920;54.796;9.430;2022-08-21T00:39:55;21.30;63.20
70460;DHT22;57920;54.796;9.430;2022-08-21T00:42:21;21.30;63.20
70460;DHT22;57920;54.796;9.430;2022-08-21T00:44:48;21.30;63.30
70460;DHT22;57920;54.796;9.430;2022-08-21T00:47:15;21.30;63.30
70460;DHT22;57920;54.796;9.430;2022-08-21T00:49:41;21.30;63.20
70460;DHT22;57920;54.796;9.430;2022-08-21T00:52:15;21.30;63.20
70460;DHT22;57920;54.796;9.430;2022-08-21T00:54:43;21.30;63.20
70460;DHT22;57920;54.796;9.430;2022-08-21T00:57:14;21.30;63.20
70460;DHT22;57920;54.796;9.430;2022-08-21T00:59:43;21.30;63.20
70460;DHT22;57920;54.796;9.430;2022-08-21T01:02:13;21.30;63.10
70460;DHT22;57920;54.796;9.430;2022-08-21T01:04:39;21.40;63.00
70460;DHT22;57920;54.796;9.430;2022-08-21T01:07:05;21.40;62.90
70460;DHT22;57920;54.796;9.430;2022-08-21T01:09:31;21.40;62.90
70460;DHT22;57920;54.796;9.430;2022-08-21T01:11:57;21.40;62.90
70460;DHT22;57920;54.796;9.430;2022-08-21T01:14:24;21.40;62.80
70460;DHT22;57920;54.796;9.430;2022-08-21T01:16:52;21.40;62.70
70460;DHT22;57920;54.796;9.430;2022-08-21T01:19:20;21.50;62.70
70460;DHT22;57920;54.796;9.430;2022-08-21T01:21:45;21.50;62.60
70460;DHT22;57920;54.796;9.430;2022-08-21T01:24:11;21.50;62.50
70460;DHT22;57920;54.796;9.430;2022-08-21T01:26:37;21.50;62.50
70460;DHT22;57920;54.796;9.430;2022-08-21T01:31:51;21.50;62.30
70460;DHT22;57920;54.796;9.430;2022-08-21T01:34:16;21.50;62.30
70460;DHT22;57920;54.796;9.430;2022-08-21T01:36:44;21.50;62.30
70460;DHT22;57920;54.796;9.430;2022-08-21T01:39:11;21.50;62.30
70460;DHT22;57920;54.796;9.430;2022-08-21T01:41:36;21.50;62.30
70460;DHT22;57920;54.796;9.430;2022-08-21T01:44:02;21.50;62.40
70460;DHT22;57920;54.796;9.430;2022-08-21T01:46:28;21.50;62.30
70460;DHT22;57920;54.796;9.430;2022-08-21T01:48:54;21.50;62.30
70460;DHT22;57920;54.796;9.430;2022-08-21T01:51:19;21.50;62.30
70460;DHT22;57920;54.796;9.430;2022-08-21T01:53:45;21.50;62.30
70460;DHT22;57920;54.796;9.430;2022-08-21T01:56:12;21.50;62.30
70460;DHT22;57920;54.796;9.430;2022-08-21T01:58:43;21.50;62.30
70460;DHT22;57920;54.796;9.430;2022-08-21T02:01:10;21.50;62.40
70460;DHT22;57920;54.796;9.430;2022-08-21T02:03:35;21.50;62.30
70460;DHT22;57920;54.796;9.430;2022-08-21T02:06:02;21.50;62.30
70460;DHT22;57920;54.796;9.430;2022-08-21T02:08:28;21.50;62.30
70460;DHT22;57920;54.796;9.430;2022-08-21T02:10:54;21.50;62.30
70460;DHT22;57920;54.796;9.430;2022-08-21T02:13:20;21.50;62.40
70460;DHT22;57920;54.796;9.430;2022-08-21T02:15:45;21.50;62.30
70460;DHT22;57920;54.796;9.430;2022-08-21T02:18:11;21.50;62.40
70460;DHT22;57920;54.796;9.430;2022-08-21T02:20:41;21.40;62.30
70460;DHT22;57920;54.796;9.430;2022-08-21T02:23:08;21.40;62.40
70460;DHT22;57920;54.796;9.430;2022-08-21T02:25:34;21.40;62.30
70460;DHT22;57920;54.796;9.430;2022-08-21T02:28:04;21.40;62.40
70460;DHT22;57920;54.796;9.430;2022-08-21T02:30:33;21.40;62.40
70460;DHT22;57920;54.796;9.430;2022-08-21T02:32:59;21.40;62.40
70460;DHT22;57920;54.796;9.430;2022-08-21T02:35:25;21.40;62.40
70460;DHT22;57920;54.796;9.430;2022-08-21T02:37:58;21.40;62.40
70460;DHT22;57920;54.796;9.430;2022-08-21T02:40:28;21.40;62.30
70460;DHT22;57920;54.796;9.430;2022-08-21T02:42:54;21.40;62.40
70460;DHT22;57920;54.796;9.430;2022-08-21T02:45:20;21.40;62.30
70460;DHT22;57920;54.796;9.430;2022-08-21T02:47:51;21.40;62.40
70460;DHT22;57920;54.796;9.430;2022-08-21T02:50:24;21.40;62.40
70460;DHT22;57920;54.796;9.430;2022-08-21T02:52:50;21.40;62.30
70460;DHT22;57920;54.796;9.430;2022-08-21T02:55:18;21.40;62.30
70460;DHT22;57920;54.796;9.430;2022-08-21T02:57:46;21.30;62.30
70460;DHT22;57920;54.796;9.430;2022-08-21T03:00:13;21.30;62.40
70460;DHT22;57920;54.796;9.430;2022-08-21T03:02:39;21.40;62.30
70460;DHT22;57920;54.796;9.430;2022-08-21T03:05:07;21.30;62.30
70460;DHT22;57920;54.796;9.430;2022-08-21T03:07:32;21.30;62.30
70460;DHT22;57920;54.796;9.430;2022-08-21T03:09:59;21.30;62.30
70460;DHT22;57920;54.796;9.430;2022-08-21T03:12:24;21.30;62.30
70460;DHT22;57920;54.796;9.430;2022-08-21T03:14:50;21.30;62.30
70460;DHT22;57920;54.796;9.430;2022-08-21T03:17:15;21.30;62.30
70460;DHT22;57920;54.796;9.430;2022-08-21T03:19:41;21.30;62.20
70460;DHT22;57920;54.796;9.430;2022-08-21T03:22:07;21.30;62.30
70460;DHT22;57920;54.796;9.430;2022-08-21T03:24:32;21.30;62.30
70460;DHT22;57920;54.796;9.430;2022-08-21T03:26:58;21.30;62.30
70460;DHT22;57920;54.796;9.430;2022-08-21T03:29:23;21.30;62.20
70460;DHT22;57920;54.796;9.430;2022-08-21T03:31:49;21.30;62.30
70460;DHT22;57920;54.796;9.430;2022-08-21T03:34:15;21.30;62.30
70460;DHT22;57920;54.796;9.430;2022-08-21T03:36:40;21.30;62.30
70460;DHT22;57920;54.796;9.430;2022-08-21T03:39:06;21.30;62.30
70460;DHT22;57920;54.796;9.430;2022-08-21T03:41:31;21.20;62.30
70460;DHT22;57920;54.796;9.430;2022-08-21T03:43:57;21.30;62.20
70460;DHT22;57920;54.796;9.430;2022-08-21T03:46:23;21.30;62.20
70460;DHT22;57920;54.796;9.430;2022-08-21T03:48:49;21.30;62.20
70460;DHT22;57920;54.796;9.430;2022-08-21T03:51:15;21.30;62.20
70460;DHT22;57920;54.796;9.430;2022-08-21T03:53:40;21.30;62.10
70460;DHT22;57920;54.796;9.430;2022-08-21T03:56:07;21.30;62.10
70460;DHT22;57920;54.796;9.430;2022-08-21T03:58:33;21.30;62.00
70460;DHT22;57920;54.796;9.430;2022-08-21T04:00:59;21.30;61.90
70460;DHT22;57920;54.796;9.430;2022-08-21T04:03:26;21.30;61.90
70460;DHT22;57920;54.796;9.430;2022-08-21T04:05:52;21.40;61.90
70460;DHT22;57920;54.796;9.430;2022-08-21T04:08:18;21.40;61.80
70460;DHT22;57920;54.796;9.430;2022-08-21T04:10:46;21.40;61.80
70460;DHT22;57920;54.796;9.430;2022-08-21T04:13:12;21.40;61.70
70460;DHT22;57920;54.796;9.430;2022-08-21T04:15:40;21.40;61.80
70460;DHT22;57920;54.796;9.430;2022-08-21T04:18:07;21.40;61.70
70460;DHT22;57920;54.796;9.430;2022-08-21T04:20:34;21.30;61.70
70460;DHT22;57920;54.796;9.430;2022-08-21T04:23:01;21.40;61.80
70460;DHT22;57920;54.796;9.430;2022-08-21T04:25:27;21.30;61.70
70460;DHT22;57920;54.796;9.430;2022-08-21T04:27:54;21.40;61.70
70460;DHT22;57920;54.796;9.430;2022-08-21T04:30:20;21.30;61.70
70460;DHT22;57920;54.796;9.430;2022-08-21T04:32:48;21.30;61.70
70460;DHT22;57920;54.796;9.430;2022-08-21T04:35:16;21.30;61.70
70460;DHT22;57920;54.796;9.430;2022-08-21T04:37:41;21.30;61.70
70460;DHT22;57920;54.796;9.430;2022-08-21T04:40:09;21.30;61.70
70460;DHT22;57920;54.796;9.430;2022-08-21T04:42:46;21.30;61.70
70460;DHT22;57920;54.796;9.430;2022-08-21T04:45:23;21.30;61.70
70460;DHT22;57920;54.796;9.430;2022-08-21T04:47:54;21.30;61.70
70460;DHT22;57920;54.796;9.430;2022-08-21T04:50:22;21.30;61.70
70460;DHT22;57920;54.796;9.430;2022-08-21T04:52:50;21.30;61.70
70460;DHT22;57920;54.796;9.430;2022-08-21T04:55:16;21.30;61.70
70460;DHT22;57920;54.796;9.430;2022-08-21T04:57:42;21.30;61.70
70460;DHT22;57920;54.796;9.430;2022-08-21T05:00:09;21.30;61.70
70460;DHT22;57920;54.796;9.430;2022-08-21T05:02:36;21.30;61.70
70460;DHT22;57920;54.796;9.430;2022-08-21T05:05:03;21.20;61.80
70460;DHT22;57920;54.796;9.430;2022-08-21T05:07:30;21.30;61.70
70460;DHT22;57920;54.796;9.430;2022-08-21T05:09:58;21.20;61.70
70460;DHT22;57920;54.796;9.430;2022-08-21T05:12:24;21.20;61.80
70460;DHT22;57920;54.796;9.430;2022-08-21T05:14:50;21.20;61.70
70460;DHT22;57920;54.796;9.430;2022-08-21T05:17:15;21.20;61.80
70460;DHT22;57920;54.796;9.430;2022-08-21T05:19:41;21.20;61.80
70460;DHT22;57920;54.796;9.430;2022-08-21T05:22:07;21.20;61.70
70460;DHT22;57920;54.796;9.430;2022-08-21T05:24:32;21.20;61.80
70460;DHT22;57920;54.796;9.430;2022-08-21T05:26:59;21.10;61.70
70460;DHT22;57920;54.796;9.430;2022-08-21T05:29:25;21.10;61.80
70460;DHT22;57920;54.796;9.430;2022-08-21T05:31:56;21.20;61.80
70460;DHT22;57920;54.796;9.430;2022-08-21T05:34:23;21.10;61.80
70460;DHT22;57920;54.796;9.430;2022-08-21T05:36:48;21.20;61.80
70460;DHT22;57920;54.796;9.430;2022-08-21T05:39:14;21.20;61.70
70460;DHT22;57920;54.796;9.430;2022-08-21T05:41:40;21.20;61.70
70460;DHT22;57920;54.796;9.430;2022-08-21T05:44:06;21.20;61.70
70460;DHT22;57920;54.796;9.430;2022-08-21T05:46:31;21.20;61.70
70460;DHT22;57920;54.796;9.430;2022-08-21T05:48:57;21.10;61.80
70460;DHT22;57920;54.796;9.430;2022-08-21T05:51:23;21.10;61.70
70460;DHT22;57920;54.796;9.430;2022-08-21T05:53:48;21.20;61.70
70460;DHT22;57920;54.796;9.430;2022-08-21T05:56:14;21.10;61.70
70460;DHT22;57920;54.796;9.430;2022-08-21T05:58:40;21.20;61.70
70460;DHT22;57920;54.796;9.430;2022-08-21T06:01:06;21.10;61.70
70460;DHT22;57920;54.796;9.430;2022-08-21T06:03:37;21.20;61.70
70460;DHT22;57920;54.796;9.430;2022-08-21T06:06:03;21.10;61.70
70460;DHT22;57920;54.796;9.430;2022-08-21T06:08:29;21.10;61.70
70460;DHT22;57920;54.796;9.430;2022-08-21T06:10:57;21.10;61.70
70460;DHT22;57920;54.796;9.430;2022-08-21T06:13:23;21.10;61.70
70460;DHT22;57920;54.796;9.430;2022-08-21T06:16:00;21.20;61.70
70460;DHT22;57920;54.796;9.430;2022-08-21T06:18:25;21.10;61.70
70460;DHT22;57920;54.796;9.430;2022-08-21T06:20:51;21.20;61.70
70460;DHT22;57920;54.796;9.430;2022-08-21T06:23:16;21.30;61.70
70460;DHT22;57920;54.796;9.430;2022-08-21T06:25:42;21.20;61.70
70460;DHT22;57920;54.796;9.430;2022-08-21T06:28:09;21.20;61.70
70460;DHT22;57920;54.796;9.430;2022-08-21T06:30:36;21.30;61.60
70460;DHT22;57920;54.796;9.430;2022-08-21T06:33:02;21.30;61.60
70460;DHT22;57920;54.796;9.430;2022-08-21T06:35:28;21.30;61.50
70460;DHT22;57920;54.796;9.430;2022-08-21T06:37:55;21.30;61.40
70460;DHT22;57920;54.796;9.430;2022-08-21T06:40:21;21.30;61.40
70460;DHT22;57920;54.796;9.430;2022-08-21T06:42:47;21.40;61.20
70460;DHT22;57920;54.796;9.430;2022-08-21T06:45:12;21.40;61.10
70460;DHT22;57920;54.796;9.430;2022-08-21T06:47:38;21.50;61.00
70460;DHT22;57920;54.796;9.430;2022-08-21T06:50:04;21.50;60.90
70460;DHT22;57920;54.796;9.430;2022-08-21T06:52:33;21.50;60.80
70460;DHT22;57920;54.796;9.430;2022-08-21T06:54:58;21.60;61.10
70460;DHT22;57920;54.796;9.430;2022-08-21T06:57:24;21.70;61.10
70460;DHT22;57920;54.796;9.430;2022-08-21T06:59:50;21.70;61.20
70460;DHT22;57920;54.796;9.430;2022-08-21T07:02:16;21.80;61.00
70460;DHT22;57920;54.796;9.430;2022-08-21T07:04:42;21.90;60.70
70460;DHT22;57920;54.796;9.430;2022-08-21T07:07:08;21.90;60.70
70460;DHT22;57920;54.796;9.430;2022-08-21T07:09:34;21.90;60.50
70460;DHT22;57920;54.796;9.430;2022-08-21T07:12:00;22.00;60.40
70460;DHT22;57920;54.796;9.430;2022-08-21T07:14:26;22.10;60.40
70460;DHT22;57920;54.796;9.430;2022-08-21T07:16:52;22.10;60.50
70460;DHT22;57920;54.796;9.430;2022-08-21T07:19:18;22.20;60.20
70460;DHT22;57920;54.796;9.430;2022-08-21T07:21:44;22.20;60.10
70460;DHT22;57920;54.796;9.430;2022-08-21T07:24:10;22.30;60.20
70460;DHT22;57920;54.796;9.430;2022-08-21T07:26:36;22.40;60.20
70460;DHT22;57920;54.796;9.430;2022-08-21T07:29:02;22.40;60.10
70460;DHT22;57920;54.796;9.430;2022-08-21T07:31:28;22.50;60.10
70460;DHT22;57920;54.796;9.430;2022-08-21T07:33:54;22.50;60.10
70460;DHT22;57920;54.796;9.430;2022-08-21T07:36:19;22.50;60.10
70460;DHT22;57920;54.796;9.430;2022-08-21T07:38:45;22.50;59.90
70460;DHT22;57920;54.796;9.430;2022-08-21T07:41:17;22.50;60.00
70460;DHT22;57920;54.796;9.430;2022-08-21T07:43:43;22.60;59.80
70460;DHT22;57920;54.796;9.430;2022-08-21T07:46:09;22.60;59.90
70460;DHT22;57920;54.796;9.430;2022-08-21T07:48:34;22.60;60.00
70460;DHT22;57920;54.796;9.430;2022-08-21T07:51:04;22.60;59.80
70460;DHT22;57920;54.796;9.430;2022-08-21T07:53:34;22.60;59.80
70460;DHT22;57920;54.796;9.430;2022-08-21T07:56:00;22.70;60.00
70460;DHT22;57920;54.796;9.430;2022-08-21T07:58:25;22.70;59.90
70460;DHT22;57920;54.796;9.430;2022-08-21T08:00:51;22.70;59.70
70460;DHT22;57920;54.796;9.430;2022-08-21T08:03:17;22.70;60.00
70460;DHT22;57920;54.796;9.430;2022-08-21T08:05:42;22.70;60.10
70460;DHT22;57920;54.796;9.430;2022-08-21T08:08:08;22.70;59.90
70460;DHT22;57920;54.796;9.430;2022-08-21T08:10:34;22.70;59.90
70460;DHT22;57920;54.796;9.430;2022-08-21T08:13:00;22.70;60.00
70460;DHT22;57920;54.796;9.430;2022-08-21T08:15:27;22.70;59.80
70460;DHT22;57920;54.796;9.430;2022-08-21T08:17:53;22.70;60.00
70460;DHT22;57920;54.796;9.430;2022-08-21T08:20:20;22.70;60.00
70460;DHT22;57920;54.796;9.430;2022-08-21T08:22:47;22.70;60.00
70460;DHT22;57920;54.796;9.430;2022-08-21T08:25:13;22.70;60.10
70460;DHT22;57920;54.796;9.430;2022-08-21T08:27:39;22.70;60.20
70460;DHT22;57920;54.796;9.430;2022-08-21T08:30:07;22.60;60.10
70460;DHT22;57920;54.796;9.430;2022-08-21T08:32:33;22.60;60.40
70460;DHT22;57920;54.796;9.430;2022-08-21T08:34:59;22.60;60.20
70460;DHT22;57920;54.796;9.430;2022-08-21T08:37:25;22.60;60.30
70460;DHT22;57920;54.796;9.430;2022-08-21T08:39:51;22.60;60.40
70460;DHT22;57920;54.796;9.430;2022-08-21T08:42:29;22.60;60.50
70460;DHT22;57920;54.796;9.430;2022-08-21T08:47:36;22.60;60.60
70460;DHT22;57920;54.796;9.430;2022-08-21T08:52:45;22.50;60.70
70460;DHT22;57920;54.796;9.430;2022-08-21T08:55:17;22.50;60.70
70460;DHT22;57920;54.796;9.430;2022-08-21T08:57:46;22.50;60.80
70460;DHT22;57920;54.796;9.430;2022-08-21T09:00:16;22.50;60.80
70460;DHT22;57920;54.796;9.430;2022-08-21T09:02:43;22.50;60.90
70460;DHT22;57920;54.796;9.430;2022-08-21T09:05:25;22.50;60.90
70460;DHT22;57920;54.796;9.430;2022-08-21T09:16:28;22.30;61.10
70460;DHT22;57920;54.796;9.430;2022-08-21T09:19:07;22.30;61.20
70460;DHT22;57920;54.796;9.430;2022-08-21T09:22:03;22.30;61.30
70460;DHT22;57920;54.796;9.430;2022-08-21T09:24:56;22.30;61.30
70460;DHT22;57920;54.796;9.430;2022-08-21T09:27:25;22.30;61.30
70460;DHT22;57920;54.796;9.430;2022-08-21T09:29:53;22.20;61.40
70460;DHT22;57920;54.796;9.430;2022-08-21T09:32:30;22.20;61.50
70460;DHT22;57920;54.796;9.430;2022-08-21T09:37:34;22.20;61.50
70460;DHT22;57920;54.796;9.430;2022-08-21T09:40:01;22.20;61.60
70460;DHT22;57920;54.796;9.430;2022-08-21T09:42:30;22.20;61.60
70460;DHT22;57920;54.796;9.430;2022-08-21T09:45:16;22.20;61.70
70460;DHT22;57920;54.796;9.430;2022-08-21T09:47:42;22.20;61.70
70460;DHT22;57920;54.796;9.430;2022-08-21T09:50:16;22.20;61.80
70460;DHT22;57920;54.796;9.430;2022-08-21T09:52:53;22.10;61.80
70460;DHT22;57920;54.796;9.430;2022-08-21T09:55:33;22.10;61.80
70460;DHT22;57920;54.796;9.430;2022-08-21T09:58:19;22.10;61.90
70460;DHT22;57920;54.796;9.430;2022-08-21T10:00:45;22.10;61.80
70460;DHT22;57920;54.796;9.430;2022-08-21T10:03:22;22.10;61.90
70460;DHT22;57920;54.796;9.430;2022-08-21T10:05:53;22.10;61.90
70460;DHT22;57920;54.796;9.430;2022-08-21T10:08:21;22.10;62.00
70460;DHT22;57920;54.796;9.430;2022-08-21T10:10:51;22.10;62.00
70460;DHT22;57920;54.796;9.430;2022-08-21T10:16:37;22.00;62.00
70460;DHT22;57920;54.796;9.430;2022-08-21T10:19:17;22.00;61.90
70460;DHT22;57920;54.796;9.430;2022-08-21T10:25:06;22.00;62.00
70460;DHT22;57920;54.796;9.430;2022-08-21T10:30:29;22.00;62.10
70460;DHT22;57920;54.796;9.430;2022-08-21T10:35:42;22.00;62.00
70460;DHT22;57920;54.796;9.430;2022-08-21T10:38:24;22.00;62.00
70460;DHT22;57920;54.796;9.430;2022-08-21T10:41:04;22.00;62.00
70460;DHT22;57920;54.796;9.430;2022-08-21T10:43:48;21.90;62.10
70460;DHT22;57920;54.796;9.430;2022-08-21T10:46:45;21.90;62.10
70460;DHT22;57920;54.796;9.430;2022-08-21T10:55:14;21.90;62.10
70460;DHT22;57920;54.796;9.430;2022-08-21T10:58:30;21.90;62.10
70460;DHT22;57920;54.796;9.430;2022-08-21T11:00:49;21.90;62.20
70460;DHT22;57920;54.796;9.430;2022-08-21T11:03:28;22.00;62.10
70460;DHT22;57920;54.796;9.430;2022-08-21T11:05:59;22.00;62.20
70460;DHT22;57920;54.796;9.430;2022-08-21T11:08:33;22.00;62.10
70460;DHT22;57920;54.796;9.430;2022-08-21T11:11:24;22.00;62.10
70460;DHT22;57920;54.796;9.430;2022-08-21T11:14:13;22.00;62.20
70460;DHT22;57920;54.796;9.430;2022-08-21T11:16:46;22.00;62.10
70460;DHT22;57920;54.796;9.430;2022-08-21T11:19:22;22.00;62.10
70460;DHT22;57920;54.796;9.430;2022-08-21T11:24:49;22.00;62.10
70460;DHT22;57920;54.796;9.430;2022-08-21T11:27:42;22.00;62.10
70460;DHT22;57920;54.796;9.430;2022-08-21T11:30:09;22.00;62.10
70460;DHT22;57920;54.796;9.430;2022-08-21T11:35:53;22.00;62.10
70460;DHT22;57920;54.796;9.430;2022-08-21T11:38:39;22.00;62.10
70460;DHT22;57920;54.796;9.430;2022-08-21T11:41:20;22.00;62.10
70460;DHT22;57920;54.796;9.430;2022-08-21T11:49:28;22.00;62.20
70460;DHT22;57920;54.796;9.430;2022-08-21T11:57:16;22.10;62.10
70460;DHT22;57920;54.796;9.430;2022-08-21T11:59:53;22.00;62.10
70460;DHT22;57920;54.796;9.430;2022-08-21T12:02:23;22.00;62.10
70460;DHT22;57920;54.796;9.430;2022-08-21T12:04:55;22.00;62.30
70460;DHT22;57920;54.796;9.430;2022-08-21T12:09:59;22.00;62.30
70460;DHT22;57920;54.796;9.430;2022-08-21T12:12:29;22.00;62.30
70460;DHT22;57920;54.796;9.430;2022-08-21T12:15:23;22.00;62.30
70460;DHT22;57920;54.796;9.430;2022-08-21T12:18:05;22.00;62.30
70460;DHT22;57920;54.796;9.430;2022-08-21T12:20:56;22.00;62.30
70460;DHT22;57920;54.796;9.430;2022-08-21T12:23:49;22.00;62.30
70460;DHT22;57920;54.796;9.430;2022-08-21T12:26:30;22.00;62.20
70460;DHT22;57920;54.796;9.430;2022-08-21T12:29:33;22.00;62.20
70460;DHT22;57920;54.796;9.430;2022-08-21T12:32:41;22.00;62.30
70460;DHT22;57920;54.796;9.430;2022-08-21T12:35:14;22.10;62.20
70460;DHT22;57920;54.796;9.430;2022-08-21T12:37:47;22.10;62.30
70460;DHT22;57920;54.796;9.430;2022-08-21T12:40:37;22.10;62.30
70460;DHT22;57920;54.796;9.430;2022-08-21T12:43:13;22.10;62.30
70460;DHT22;57920;54.796;9.430;2022-08-21T12:45:44;22.10;62.30
70460;DHT22;57920;54.796;9.430;2022-08-21T12:48:23;22.10;62.30
70460;DHT22;57920;54.796;9.430;2022-08-21T12:50:58;22.10;62.30
70460;DHT22;57920;54.796;9.430;2022-08-21T12:53:35;22.00;62.50
70460;DHT22;57920;54.796;9.430;2022-08-21T12:56:11;22.00;62.50
70460;DHT22;57920;54.796;9.430;2022-08-21T12:58:41;22.00;62.40
70460;DHT22;57920;54.796;9.430;2022-08-21T13:01:29;22.10;62.40
70460;DHT22;57920;54.796;9.430;2022-08-21T13:04:06;22.10;62.40
70460;DHT22;57920;54.796;9.430;2022-08-21T13:06:38;22.10;62.40
70460;DHT22;57920;54.796;9.430;2022-08-21T13:09:07;22.10;62.50
70460;DHT22;57920;54.796;9.430;2022-08-21T13:11:35;22.10;62.50
70460;DHT22;57920;54.796;9.430;2022-08-21T13:14:02;22.00;62.50
70460;DHT22;57920;54.796;9.430;2022-08-21T13:16:29;22.00;62.50
70460;DHT22;57920;54.796;9.430;2022-08-21T13:19:03;22.00;62.60
70460;DHT22;57920;54.796;9.430;2022-08-21T13:21:38;22.00;62.60
70460;DHT22;57920;54.796;9.430;2022-08-21T13:24:25;22.00;62.60
70460;DHT22;57920;54.796;9.430;2022-08-21T13:26:54;22.10;62.50
70460;DHT22;57920;54.796;9.430;2022-08-21T13:29:23;22.10;62.50
70460;DHT22;57920;54.796;9.430;2022-08-21T13:31:54;22.10;62.50
70460;DHT22;57920;54.796;9.430;2022-08-21T13:34:28;22.10;62.40
70460;DHT22;57920;54.796;9.430;2022-08-21T13:36:57;22.10;62.30
70460;DHT22;57920;54.796;9.430;2022-08-21T13:39:24;22.10;62.40
70460;DHT22;57920;54.796;9.430;2022-08-21T13:41:53;22.10;62.50
70460;DHT22;57920;54.796;9.430;2022-08-21T13:44:23;22.10;62.50
70460;DHT22;57920;54.796;9.430;2022-08-21T13:46:52;22.20;62.40
70460;DHT22;57920;54.796;9.430;2022-08-21T13:49:21;22.20;62.20
70460;DHT22;57920;54.796;9.430;2022-08-21T13:51:49;22.20;62.20
70460;DHT22;57920;54.796;9.430;2022-08-21T13:54:27;22.20;62.40
70460;DHT22;57920;54.796;9.430;2022-08-21T13:56:54;22.20;62.30
70460;DHT22;57920;54.796;9.430;2022-08-21T13:59:33;22.20;62.40
70460;DHT22;57920;54.796;9.430;2022-08-21T14:02:08;22.20;62.40
70460;DHT22;57920;54.796;9.430;2022-08-21T14:04:51;22.20;62.30
70460;DHT22;57920;54.796;9.430;2022-08-21T14:07:40;22.20;62.30
70460;DHT22;57920;54.796;9.430;2022-08-21T14:10:13;22.20;62.30
70460;DHT22;57920;54.796;9.430;2022-08-21T14:15:15;22.20;62.20
70460;DHT22;57920;54.796;9.430;2022-08-21T14:17:42;22.30;62.30
70460;DHT22;57920;54.796;9.430;2022-08-21T14:20:11;22.20;62.30
70460;DHT22;57920;54.796;9.430;2022-08-21T14:30:42;22.30;62.30
70460;DHT22;57920;54.796;9.430;2022-08-21T14:33:11;22.30;62.20
70460;DHT22;57920;54.796;9.430;2022-08-21T14:35:36;22.30;62.20
70460;DHT22;57920;54.796;9.430;2022-08-21T14:38:10;22.30;62.20
70460;DHT22;57920;54.796;9.430;2022-08-21T14:40:36;22.40;61.40
70460;DHT22;57920;54.796;9.430;2022-08-21T14:43:01;22.40;60.50
70460;DHT22;57920;54.796;9.430;2022-08-21T14:45:29;22.50;59.90
70460;DHT22;57920;54.796;9.430;2022-08-21T14:47:56;22.50;60.00
70460;DHT22;57920;54.796;9.430;2022-08-21T14:50:22;22.50;60.00
70460;DHT22;57920;54.796;9.430;2022-08-21T14:52:47;22.50;60.40
70460;DHT22;57920;54.796;9.430;2022-08-21T14:55:15;22.50;59.70
70460;DHT22;57920;54.796;9.430;2022-08-21T14:57:46;22.50;60.20
70460;DHT22;57920;54.796;9.430;2022-08-21T15:00:15;22.50;60.40
70460;DHT22;57920;54.796;9.430;2022-08-21T15:02:42;22.50;58.90
70460;DHT22;57920;54.796;9.430;2022-08-21T15:05:08;22.60;60.20
70460;DHT22;57920;54.796;9.430;2022-08-21T15:07:34;22.60;60.10
70460;DHT22;57920;54.796;9.430;2022-08-21T15:09:59;22.60;59.90
70460;DHT22;57920;54.796;9.430;2022-08-21T15:12:25;22.60;59.40
70460;DHT22;57920;54.796;9.430;2022-08-21T15:14:51;22.60;59.40
70460;DHT22;57920;54.796;9.430;2022-08-21T15:17:17;22.60;59.30
70460;DHT22;57920;54.796;9.430;2022-08-21T15:19:42;22.60;59.80
70460;DHT22;57920;54.796;9.430;2022-08-21T15:22:08;22.60;59.40
70460;DHT22;57920;54.796;9.430;2022-08-21T15:24:33;22.60;58.80
70460;DHT22;57920;54.796;9.430;2022-08-21T15:27:01;22.60;57.90
70460;DHT22;57920;54.796;9.430;2022-08-21T15:29:29;22.60;58.00
70460;DHT22;57920;54.796;9.430;2022-08-21T15:31:57;22.60;59.30
70460;DHT22;57920;54.796;9.430;2022-08-21T15:34:26;22.60;59.00
70460;DHT22;57920;54.796;9.430;2022-08-21T15:36:53;22.60;59.30
70460;DHT22;57920;54.796;9.430;2022-08-21T15:39:19;22.60;58.90
70460;DHT22;57920;54.796;9.430;2022-08-21T15:41:45;22.50;59.50
70460;DHT22;57920;54.796;9.430;2022-08-21T15:44:12;22.50;59.70
70460;DHT22;57920;54.796;9.430;2022-08-21T15:46:38;22.50;59.90
70460;DHT22;57920;54.796;9.430;2022-08-21T15:49:04;22.50;60.10
70460;DHT22;57920;54.796;9.430;2022-08-21T15:51:30;22.50;60.30
70460;DHT22;57920;54.796;9.430;2022-08-21T15:53:55;22.40;60.50
70460;DHT22;57920;54.796;9.430;2022-08-21T15:56:24;22.40;60.60
70460;DHT22;57920;54.796;9.430;2022-08-21T15:58:54;22.30;60.70
70460;DHT22;57920;54.796;9.430;2022-08-21T16:01:22;22.30;60.80
70460;DHT22;57920;54.796;9.430;2022-08-21T16:03:49;22.30;61.00
70460;DHT22;57920;54.796;9.430;2022-08-21T16:06:17;22.30;61.10
70460;DHT22;57920;54.796;9.430;2022-08-21T16:08:42;22.30;61.10
70460;DHT22;57920;54.796;9.430;2022-08-21T16:11:08;22.30;61.30
70460;DHT22;57920;54.796;9.430;2022-08-21T16:13:44;22.30;61.30
70460;DHT22;57920;54.796;9.430;2022-08-21T16:16:12;22.20;61.20
70460;DHT22;57920;54.796;9.430;2022-08-21T16:18:40;22.20;61.20
70460;DHT22;57920;54.796;9.430;2022-08-21T16:21:06;22.30;61.40
70460;DHT22;57920;54.796;9.430;2022-08-21T16:23:32;22.20;61.40
70460;DHT22;57920;54.796;9.430;2022-08-21T16:26:01;22.20;61.40
70460;DHT22;57920;54.796;9.430;2022-08-21T16:28:27;22.20;61.50
70460;DHT22;57920;54.796;9.430;2022-08-21T16:30:53;22.20;61.30
70460;DHT22;57920;54.796;9.430;2022-08-21T16:35:45;22.20;61.30
70460;DHT22;57920;54.796;9.430;2022-08-21T16:38:10;22.20;61.60
70460;DHT22;57920;54.796;9.430;2022-08-21T16:40:36;22.20;61.60
70460;DHT22;57920;54.796;9.430;2022-08-21T16:43:01;22.20;61.60
70460;DHT22;57920;54.796;9.430;2022-08-21T16:45:27;22.20;61.60
70460;DHT22;57920;54.796;9.430;2022-08-21T16:47:53;22.20;61.70
70460;DHT22;57920;54.796;9.430;2022-08-21T16:50:21;22.20;61.70
70460;DHT22;57920;54.796;9.430;2022-08-21T16:52:47;22.10;61.60